Time;durP1;ratioP1;P1;durP2;ratioP2;P2;SDS_P1;SDS_P2;PMS_P1;PMS_P2;Temp;Humidity;BMP_temperature;BMP_pressure;BME280_temperature;BME280_humidity;BME280_pressure;Samples;Min_cycle;Max_cycle;Signal;HPM_P1;HPM_P2
2023/11/27 00:00:34;;;;;;;1.15;1.00;;;;;;;20.32;41.22;100880.69;5067465;28;20032;-72
2023/11/27 00:03:00;;;;;;;0.93;0.90;;;;;;;20.32;40.99;100883.34;5010888;28;20039;-72
2023/11/27 00:05:25;;;;;;;1.20;0.82;;;;;;;20.31;40.94;100877.25;5060422;28;20045;-72
2023/11/27 00:07:51;;;;;;;0.80;0.80;;;;;;;20.29;41.16;100873.97;5005321;28;20040;-71
2023/11/27 00:10:16;;;;;;;1.50;0.77;;;;;;;20.29;41.16;100870.47;5067181;28;20512;-72
2023/11/27 00:12:42;;;;;;;0.80;0.80;;;;;;;20.23;41.15;100859.63;4993431;28;21673;-71
2023/11/27 00:15:08;;;;;;;1.00;0.90;;;;;;;20.24;41.03;100857.78;5063318;28;20467;-72
2023/11/27 00:17:33;;;;;;;0.60;0.60;;;;;;;20.28;41.06;100853.78;5008051;28;20714;-72
2023/11/27 00:19:59;;;;;;;1.15;0.95;;;;;;;20.27;41.06;100854.78;5063588;28;20048;-71
2023/11/27 00:22:25;;;;;;;1.00;1.00;;;;;;;20.27;41.13;100846.03;5016342;28;23120;-71
2023/11/27 00:24:50;;;;;;;0.88;0.80;;;;;;;20.26;41.00;100833.81;5059702;28;20058;-71
2023/11/27 00:27:17;;;;;;;1.02;0.85;;;;;;;20.20;41.02;100824.78;5018057;28;20709;-71
2023/11/27 00:29:44;;;;;;;0.80;0.80;;;;;;;20.18;40.78;100830.25;5046964;28;20032;-72
2023/11/27 00:32:09;;;;;;;1.00;0.80;;;;;;;20.24;41.00;100823.41;5032290;28;20044;-71
2023/11/27 00:34:35;;;;;;;0.80;0.80;;;;;;;20.24;40.92;100820.78;5024876;28;20118;-71
2023/11/27 00:37:01;;;;;;;0.90;0.90;;;;;;;20.25;41.04;100822.41;5063450;28;20040;-72
2023/11/27 00:39:26;;;;;;;1.45;1.17;;;;;;;20.25;41.12;100821.59;4991814;28;20144;-72
2023/11/27 00:41:52;;;;;;;1.88;1.00;;;;;;;20.23;40.94;100814.66;5061655;28;20040;-72
2023/11/27 00:44:18;;;;;;;0.93;0.82;;;;;;;20.22;40.99;100801.63;5010730;28;20105;-71
2023/11/27 00:46:43;;;;;;;0.98;0.80;;;;;;;20.23;41.15;100793.50;5040519;28;20039;-72
2023/11/27 00:49:09;;;;;;;1.02;1.00;;;;;;;20.22;41.08;100794.53;5010599;28;20675;-71
2023/11/27 00:51:34;;;;;;;1.10;0.95;;;;;;;20.22;40.99;100788.41;5047701;28;20036;-71
2023/11/27 00:54:00;;;;;;;1.55;1.20;;;;;;;20.19;41.11;100779.03;4956934;28;20064;-71
2023/11/27 00:56:27;;;;;;;1.10;1.00;;;;;;;20.21;41.10;100782.31;5063368;28;20067;-72
2023/11/27 00:58:52;;;;;;;1.50;1.40;;;;;;;20.16;41.10;100762.72;5045718;28;20106;-71
2023/11/27 01:01:19;;;;;;;2.20;1.10;;;;;;;20.22;41.07;100783.13;4992425;28;20040;-71
2023/11/27 01:03:44;;;;;;;1.40;0.88;;;;;;;20.20;41.17;100782.50;5048284;28;20198;-71
2023/11/27 01:06:13;;;;;;;0.80;0.80;;;;;;;20.15;41.11;100771.66;4995032;28;20112;-71
2023/11/27 01:08:40;;;;;;;1.20;1.10;;;;;;;20.19;41.14;100776.38;5035381;28;20032;-71
2023/11/27 01:11:06;;;;;;;1.52;1.35;;;;;;;20.19;40.97;100764.97;4988823;28;20867;-71
2023/11/27 01:13:32;;;;;;;1.35;1.20;;;;;;;20.20;41.13;100758.69;5059007;28;20144;-71
2023/11/27 01:15:57;;;;;;;1.13;1.02;;;;;;;20.12;41.11;100741.13;4995759;28;20044;-71
2023/11/27 01:18:23;;;;;;;1.40;1.27;;;;;;;20.20;40.83;100761.34;5044297;28;20049;-72
2023/11/27 01:20:49;;;;;;;2.33;1.40;;;;;;;20.22;41.05;100761.97;5011285;28;20036;-71
2023/11/27 01:23:15;;;;;;;1.17;1.00;;;;;;;20.20;41.12;100756.88;5063879;28;20577;-71
2023/11/27 01:25:41;;;;;;;0.88;0.88;;;;;;;20.18;41.13;100743.00;4988591;28;20482;-71
2023/11/27 01:28:08;;;;;;;1.58;1.02;;;;;;;20.16;41.17;100734.44;5068098;28;20110;-71
2023/11/27 01:30:34;;;;;;;0.90;0.90;;;;;;;20.22;41.07;100738.16;5007604;28;20062;-71
2023/11/27 01:33:00;;;;;;;1.00;1.00;;;;;;;20.13;41.22;100729.53;5049842;28;20036;-71
2023/11/27 01:35:25;;;;;;;0.95;0.88;;;;;;;20.20;41.19;100740.19;5006536;28;20036;-72
2023/11/27 01:37:51;;;;;;;1.40;1.30;;;;;;;19.98;41.05;100701.47;5062645;28;20040;-71
2023/11/27 01:40:16;;;;;;;1.17;1.08;;;;;;;20.02;41.07;100708.03;4989231;28;20572;-71
2023/11/27 01:42:42;;;;;;;1.67;1.20;;;;;;;20.09;41.20;100707.09;5064197;28;20066;-71
2023/11/27 01:45:08;;;;;;;1.08;1.00;;;;;;;20.20;41.02;100719.84;5007496;28;20044;-72
2023/11/27 01:47:34;;;;;;;1.25;1.15;;;;;;;20.18;41.21;100710.47;5046645;28;20044;-71
2023/11/27 01:50:00;;;;;;;1.30;1.15;;;;;;;20.13;41.14;100700.47;5001377;28;20032;-72
2023/11/27 01:52:27;;;;;;;1.15;1.13;;;;;;;20.13;41.10;100694.34;5061756;28;20033;-71
2023/11/27 01:54:54;;;;;;;1.42;1.33;;;;;;;20.17;40.97;100695.63;5006652;28;20132;-71
2023/11/27 01:57:22;;;;;;;1.63;1.30;;;;;;;20.18;41.21;100682.19;5060783;28;20040;-71
2023/11/27 01:59:50;;;;;;;1.45;1.35;;;;;;;20.04;41.15;100667.19;5008072;28;20040;-71
2023/11/27 02:02:16;;;;;;;1.70;1.60;;;;;;;20.16;41.20;100680.75;5039154;28;20032;-71
2023/11/27 02:04:42;;;;;;;1.33;1.20;;;;;;;20.16;41.14;100681.56;5061025;28;20044;-71
2023/11/27 02:07:10;;;;;;;1.30;1.20;;;;;;;20.14;41.08;100688.06;5007934;28;20033;-71
2023/11/27 02:09:36;;;;;;;1.42;1.30;;;;;;;20.07;41.06;100679.22;5063884;28;20035;-71
2023/11/27 02:12:02;;;;;;;1.58;1.15;;;;;;;20.18;40.94;100689.31;4990193;28;20048;-71
2023/11/27 02:14:29;;;;;;;1.30;1.20;;;;;;;20.15;41.08;100679.13;5066268;28;20036;-71
2023/11/27 02:16:54;;;;;;;0.88;0.88;;;;;;;20.16;40.97;100668.34;5007375;28;20509;-71
2023/11/27 02:19:20;;;;;;;1.50;1.40;;;;;;;20.06;41.01;100659.88;5067174;28;20044;-71
2023/11/27 02:21:46;;;;;;;1.38;1.27;;;;;;;20.13;40.95;100666.09;4992874;28;20032;-71
2023/11/27 02:24:11;;;;;;;1.35;1.15;;;;;;;20.11;41.13;100657.53;5050416;28;20053;-71
2023/11/27 02:26:38;;;;;;;1.38;1.27;;;;;;;20.14;41.07;100662.44;5024054;28;20036;-71
2023/11/27 02:29:04;;;;;;;1.00;1.00;;;;;;;20.14;41.03;100658.97;5055657;28;20728;-71
2023/11/27 02:31:31;;;;;;;1.73;1.63;;;;;;;20.07;41.10;100648.31;5041292;28;20093;-71
2023/11/27 02:33:56;;;;;;;1.10;1.00;;;;;;;20.12;40.99;100653.88;4998457;28;20864;-71
2023/11/27 02:36:24;;;;;;;1.15;1.05;;;;;;;20.13;41.03;100654.69;5067728;28;20052;-71
2023/11/27 02:38:50;;;;;;;1.50;1.40;;;;;;;20.10;41.25;100652.41;5010091;28;20040;-71
2023/11/27 02:41:16;;;;;;;1.23;1.13;;;;;;;20.11;41.12;100651.41;5071572;28;20051;-71
2023/11/27 02:43:42;;;;;;;1.20;1.10;;;;;;;20.10;41.12;100645.28;4992081;28;21065;-71
2023/11/27 02:46:07;;;;;;;1.30;1.20;;;;;;;20.02;41.07;100629.53;5063763;28;20036;-71
2023/11/27 02:48:33;;;;;;;1.42;1.17;;;;;;;20.09;41.22;100641.00;5009824;28;20044;-71
2023/11/27 02:50:58;;;;;;;1.40;1.30;;;;;;;20.06;41.25;100632.63;5065912;28;20044;-71
2023/11/27 02:53:24;;;;;;;1.38;1.27;;;;;;;20.08;41.17;100626.16;5007205;28;20037;-72
2023/11/27 02:55:50;;;;;;;1.52;1.33;;;;;;;20.07;41.15;100632.44;5053865;28;20047;-71
2023/11/27 02:58:17;;;;;;;1.60;1.50;;;;;;;20.03;40.96;100612.69;5003779;28;20097;-71
2023/11/27 03:00:43;;;;;;;1.23;1.13;;;;;;;19.82;41.24;100579.09;5061646;28;20478;-71
2023/11/27 03:03:09;;;;;;;1.42;1.30;;;;;;;20.07;41.21;100613.13;4976492;28;20094;-71
2023/11/27 03:05:34;;;;;;;1.50;1.40;;;;;;;20.09;41.18;100605.81;5045725;28;20437;-71
2023/11/27 03:08:01;;;;;;;1.63;1.38;;;;;;;20.00;41.10;100586.63;5017021;28;20032;-72
2023/11/27 03:10:26;;;;;;;1.40;1.30;;;;;;;20.06;41.28;100601.72;5070062;28;20040;-71
2023/11/27 03:12:53;;;;;;;1.25;1.10;;;;;;;20.01;41.12;100590.91;5013397;28;20387;-71
2023/11/27 03:15:20;;;;;;;1.10;1.10;;;;;;;20.02;41.23;100591.72;5068297;28;20079;-72
2023/11/27 03:17:46;;;;;;;1.38;1.27;;;;;;;20.06;41.15;100595.63;4997611;28;20048;-71
2023/11/27 03:20:12;;;;;;;1.73;1.50;;;;;;;20.05;41.33;100586.88;5038307;28;20039;-71
2023/11/27 03:22:38;;;;;;;1.30;1.20;;;;;;;20.02;41.33;100576.69;5009705;28;20059;-71
2023/11/27 03:25:04;;;;;;;1.67;1.20;;;;;;;20.03;41.19;100574.84;5058395;28;20044;-71
2023/11/27 03:27:30;;;;;;;1.42;1.30;;;;;;;20.04;41.13;100565.91;5007597;28;20737;-71
2023/11/27 03:29:56;;;;;;;1.40;1.30;;;;;;;20.06;41.21;100574.47;5061806;28;20033;-71
2023/11/27 03:32:22;;;;;;;1.83;1.48;;;;;;;20.07;41.12;100563.72;5012379;28;20048;-71
2023/11/27 03:34:47;;;;;;;1.40;1.30;;;;;;;20.06;41.17;100564.72;5058075;28;20173;-71
2023/11/27 03:37:13;;;;;;;1.40;1.30;;;;;;;20.04;41.14;100553.53;5006832;28;20036;-71
2023/11/27 03:39:38;;;;;;;1.20;1.13;;;;;;;20.04;41.20;100558.81;5062853;28;20563;-71
2023/11/27 03:42:04;;;;;;;1.23;1.20;;;;;;;20.05;41.08;100555.16;5003473;28;20325;-72
2023/11/27 03:44:30;;;;;;;1.52;1.40;;;;;;;20.00;41.11;100554.09;5061811;28;20067;-71
2023/11/27 03:46:57;;;;;;;1.55;1.30;;;;;;;19.96;41.14;100536.97;5005615;28;20113;-71
2023/11/27 03:49:23;;;;;;;1.63;1.52;;;;;;;20.00;41.09;100541.69;5044772;28;20040;-71
2023/11/27 03:51:48;;;;;;;1.23;1.15;;;;;;;19.97;41.27;100535.97;5009379;28;20670;-71
2023/11/27 03:54:14;;;;;;;1.35;1.27;;;;;;;20.05;41.13;100546.41;5065058;28;20086;-72
2023/11/27 03:56:40;;;;;;;1.40;1.30;;;;;;;20.02;41.17;100529.09;5023960;28;20071;-71
2023/11/27 03:59:06;;;;;;;1.20;1.10;;;;;;;20.03;41.03;100530.75;5025094;28;20525;-71
2023/11/27 04:01:32;;;;;;;1.45;1.33;;;;;;;20.04;41.21;100535.03;5043462;28;20037;-71
2023/11/27 04:03:59;;;;;;;1.25;1.08;;;;;;;19.97;41.21;100523.56;5036643;28;20478;-71
2023/11/27 04:06:29;;;;;;;0.93;0.93;;;;;;;20.04;41.14;100528.91;5059988;28;20107;-71
2023/11/27 04:08:55;;;;;;;1.13;1.02;;;;;;;19.97;41.14;100509.53;5036049;28;20089;-71
2023/11/27 04:11:21;;;;;;;1.23;1.05;;;;;;;20.01;41.14;100516.91;5046724;28;20056;-71
2023/11/27 04:13:46;;;;;;;1.35;1.20;;;;;;;19.99;41.19;100513.63;5042163;28;20039;-71
2023/11/27 04:16:12;;;;;;;1.65;1.40;;;;;;;19.92;41.06;100502.97;5008941;28;20051;-71
2023/11/27 04:18:38;;;;;;;1.20;1.20;;;;;;;20.02;41.08;100502.69;5043960;28;20085;-71
2023/11/27 04:21:06;;;;;;;1.02;1.00;;;;;;;19.95;41.10;100490.41;5013492;28;20070;-72
2023/11/27 04:23:31;;;;;;;1.02;1.00;;;;;;;19.99;41.17;100499.59;5063937;28;20049;-72
2023/11/27 04:25:57;;;;;;;1.42;1.30;;;;;;;19.97;41.06;100489.22;5013505;28;20040;-72
2023/11/27 04:28:22;;;;;;;1.17;1.08;;;;;;;19.98;41.08;100495.31;5066194;28;20109;-71
2023/11/27 04:30:48;;;;;;;1.55;1.38;;;;;;;19.96;41.15;100487.59;5004991;28;20086;-71
2023/11/27 04:33:16;;;;;;;1.15;1.05;;;;;;;19.91;41.23;100477.56;5049914;28;20024;-72
2023/11/27 04:35:42;;;;;;;1.23;1.13;;;;;;;19.97;41.13;100491.03;5012300;28;20036;-72
2023/11/27 04:38:11;;;;;;;1.02;1.02;;;;;;;19.98;41.17;100477.63;5059341;28;20047;-71
2023/11/27 04:40:37;;;;;;;1.23;1.02;;;;;;;19.94;41.24;100470.28;4987585;28;20043;-72
2023/11/27 04:43:03;;;;;;;1.40;1.30;;;;;;;19.94;41.13;100463.16;5064716;28;21839;-71
2023/11/27 04:45:29;;;;;;;1.08;1.05;;;;;;;19.98;41.14;100472.34;5001505;28;20118;-71
2023/11/27 04:47:54;;;;;;;1.10;1.10;;;;;;;19.97;41.12;100468.06;5061456;28;20138;-71
2023/11/27 04:50:21;;;;;;;1.35;1.15;;;;;;;19.96;41.22;100466.44;5017691;28;20036;-72
2023/11/27 04:52:47;;;;;;;1.30;1.20;;;;;;;19.92;41.17;100457.22;5061237;28;20024;-72
2023/11/27 04:55:12;;;;;;;1.25;1.20;;;;;;;19.87;41.21;100449.06;5010441;28;20044;-71
2023/11/27 04:57:38;;;;;;;1.08;1.08;;;;;;;19.97;41.12;100460.16;5068102;28;20039;-72
2023/11/27 05:00:05;;;;;;;1.30;1.20;;;;;;;19.86;41.04;100439.50;5013250;28;20052;-71
2023/11/27 05:02:31;;;;;;;1.02;1.02;;;;;;;19.97;41.22;100448.75;5065457;28;20071;-71
2023/11/27 05:04:57;;;;;;;1.10;1.10;;;;;;;19.94;41.16;100442.03;5005294;28;20801;-72
2023/11/27 05:07:22;;;;;;;0.90;0.90;;;;;;;19.95;41.15;100438.38;5054230;28;20430;-71
2023/11/27 05:09:48;;;;;;;1.05;1.05;;;;;;;19.74;41.11;100404.00;5005662;28;20211;-71
2023/11/27 05:12:14;;;;;;;1.00;1.00;;;;;;;19.92;41.15;100428.97;5067900;28;20052;-71
2023/11/27 05:14:41;;;;;;;1.30;1.08;;;;;;;19.96;41.14;100418.06;5040361;28;20055;-71
2023/11/27 05:17:08;;;;;;;1.00;1.00;;;;;;;19.95;41.10;100413.78;5068260;28;20078;-71
2023/11/27 05:19:35;;;;;;;1.17;1.10;;;;;;;19.94;41.13;100426.19;5062852;28;20075;-71
2023/11/27 05:22:04;;;;;;;0.82;0.82;;;;;;;19.91;41.17;100414.13;5063988;28;20039;-71
2023/11/27 05:24:29;;;;;;;0.93;0.93;;;;;;;19.90;41.07;100398.47;5052280;28;20458;-72
2023/11/27 05:26:56;;;;;;;1.20;1.10;;;;;;;19.85;41.14;100391.13;5063100;28;20035;-71
2023/11/27 05:29:22;;;;;;;1.30;1.20;;;;;;;19.93;41.13;100398.13;5059945;28;20060;-71
2023/11/27 05:31:47;;;;;;;1.00;1.00;;;;;;;19.92;41.24;100388.53;5058969;28;20048;-71
2023/11/27 05:34:13;;;;;;;1.15;1.00;;;;;;;19.86;41.13;100376.09;5046326;28;20048;-72
2023/11/27 05:36:38;;;;;;;1.25;1.20;;;;;;;19.92;41.12;100372.66;5063644;28;20040;-71
2023/11/27 05:39:05;;;;;;;0.90;0.90;;;;;;;19.91;41.27;100374.50;5055562;28;20040;-71
2023/11/27 05:41:31;;;;;;;0.75;0.75;;;;;;;19.90;41.24;100364.94;5057252;28;20064;-71
2023/11/27 05:43:57;;;;;;;1.08;1.05;;;;;;;19.82;41.27;100358.97;5055293;28;20067;-71
2023/11/27 05:46:22;;;;;;;1.00;1.00;;;;;;;19.91;41.16;100361.28;5056217;28;21102;-72
2023/11/27 05:48:48;;;;;;;0.90;0.90;;;;;;;19.86;41.18;100350.47;5069301;28;20500;-71
2023/11/27 05:51:15;;;;;;;1.08;1.05;;;;;;;19.90;41.19;100362.28;5056974;28;20055;-71
2023/11/27 05:53:41;;;;;;;1.02;0.85;;;;;;;19.91;41.28;100352.53;5046912;28;20616;-71
2023/11/27 05:56:08;;;;;;;0.77;0.77;;;;;;;19.92;41.23;100349.69;5054518;28;20043;-71
2023/11/27 05:58:34;;;;;;;0.70;0.70;;;;;;;19.88;41.10;100343.16;5057437;28;20052;-71
2023/11/27 06:00:59;;;;;;;1.55;1.45;;;;;;;19.94;41.24;100338.16;5054830;28;20037;-71
2023/11/27 06:03:25;;;;;;;1.00;0.95;;;;;;;19.90;41.19;100335.88;5063336;28;20052;-71
2023/11/27 06:05:51;;;;;;;0.70;0.70;;;;;;;19.91;41.29;100337.50;5059367;28;20075;-72
2023/11/27 06:08:17;;;;;;;0.70;0.70;;;;;;;19.85;41.28;100327.72;5055675;28;20105;-71
2023/11/27 06:10:43;;;;;;;1.10;1.00;;;;;;;19.90;41.34;100327.13;5056299;28;20210;-72
2023/11/27 06:13:08;;;;;;;0.65;0.65;;;;;;;19.90;41.25;100327.94;5058170;28;20512;-72
2023/11/27 06:15:34;;;;;;;0.90;0.90;;;;;;;19.91;41.26;100323.47;5057016;28;20063;-71
2023/11/27 06:17:59;;;;;;;0.52;0.52;;;;;;;19.87;41.15;100309.84;5044364;28;20032;-72
2023/11/27 06:20:25;;;;;;;0.65;0.65;;;;;;;19.83;41.28;100305.94;5049901;28;20048;-71
2023/11/27 06:22:51;;;;;;;0.65;0.65;;;;;;;19.84;41.29;100290.91;5046597;28;20056;-71
2023/11/27 06:25:17;;;;;;;0.90;0.90;;;;;;;19.88;41.37;100295.59;5051228;28;20048;-72
2023/11/27 06:27:42;;;;;;;0.80;0.80;;;;;;;19.91;41.21;100295.22;5064445;28;20055;-71
2023/11/27 06:30:10;;;;;;;0.95;0.93;;;;;;;19.90;41.36;100293.59;5027740;28;20036;-72
2023/11/27 06:32:36;;;;;;;0.70;0.70;;;;;;;19.90;41.24;100290.13;5045315;28;20037;-71
2023/11/27 06:35:01;;;;;;;0.73;0.73;;;;;;;19.83;41.31;100278.72;5038072;28;20094;-71
2023/11/27 06:37:27;;;;;;;0.77;0.77;;;;;;;19.88;41.41;100285.03;5060226;28;20052;-71
2023/11/27 06:39:54;;;;;;;0.70;0.70;;;;;;;19.85;41.26;100274.88;5057749;28;20502;-71
2023/11/27 06:42:20;;;;;;;0.63;0.63;;;;;;;19.87;41.24;100278.13;5057006;28;20106;-72
2023/11/27 06:44:45;;;;;;;1.00;0.90;;;;;;;19.87;41.34;100272.03;5061479;28;20420;-71
2023/11/27 06:47:11;;;;;;;0.68;0.50;;;;;;;19.82;41.33;100261.22;5060383;28;20514;-72
2023/11/27 06:49:37;;;;;;;0.60;0.60;;;;;;;19.89;41.32;100267.34;5063579;28;20045;-72
2023/11/27 06:52:02;;;;;;;1.13;1.00;;;;;;;19.89;41.30;100270.81;5041932;28;20040;-72
2023/11/27 06:54:28;;;;;;;1.08;0.60;;;;;;;19.88;41.28;100271.00;5061709;28;20025;-72
2023/11/27 06:56:53;;;;;;;0.60;0.60;;;;;;;19.90;41.34;100269.00;5060682;28;20036;-72
2023/11/27 06:59:20;;;;;;;0.70;0.70;;;;;;;19.90;41.26;100263.72;5062642;28;20517;-72
2023/11/27 07:01:45;;;;;;;0.60;0.60;;;;;;;19.89;41.34;100267.34;5046862;28;20806;-73
2023/11/27 07:04:11;;;;;;;0.77;0.77;;;;;;;19.82;41.34;100251.47;5062858;28;20055;-72
2023/11/27 07:06:39;;;;;;;0.60;0.60;;;;;;;19.90;41.41;100264.53;5061012;28;20032;-73
2023/11/27 07:09:05;;;;;;;0.40;0.40;;;;;;;19.85;41.29;100239.69;5041444;28;20036;-72
2023/11/27 07:11:34;;;;;;;0.60;0.60;;;;;;;19.88;41.53;100241.94;5052322;28;20037;-72
2023/11/27 07:14:01;;;;;;;0.40;0.40;;;;;;;20.06;41.11;100255.47;5041340;28;20071;-73
2023/11/27 07:16:27;;;;;;;0.68;0.68;;;;;;;20.45;40.26;100249.59;5036767;28;20517;-72
2023/11/27 07:18:54;;;;;;;0.60;0.60;;;;;;;21.03;39.42;100247.31;5057660;28;20044;-73
2023/11/27 07:21:20;;;;;;;0.40;0.40;;;;;;;21.25;38.84;100237.41;5062443;28;20086;-72
2023/11/27 07:23:45;;;;;;;0.70;0.70;;;;;;;21.28;38.83;100244.94;5059758;28;20060;-72
2023/11/27 07:26:11;;;;;;;0.50;0.50;;;;;;;21.28;38.67;100238.81;5046679;28;20048;-72
2023/11/27 07:28:42;;;;;;;0.70;0.70;;;;;;;21.24;39.24;100238.41;5070455;28;20047;-72
2023/11/27 07:31:09;;;;;;;0.40;0.40;;;;;;;21.06;39.15;100219.63;5067204;28;20494;-72
2023/11/27 07:33:35;;;;;;;0.70;0.70;;;;;;;21.01;39.28;100222.91;5061675;28;20646;-72
2023/11/27 07:36:01;;;;;;;0.47;0.47;;;;;;;20.97;39.58;100229.59;5064198;28;20059;-73
2023/11/27 07:38:27;;;;;;;0.50;0.30;;;;;;;20.95;40.04;100230.81;5063748;28;20151;-72
2023/11/27 07:40:52;;;;;;;0.60;0.60;;;;;;;20.85;39.99;100223.28;5062096;28;20047;-73
2023/11/27 07:43:18;;;;;;;0.60;0.60;;;;;;;20.75;39.79;100214.91;5063784;28;20045;-73
2023/11/27 07:45:45;;;;;;;0.45;0.45;;;;;;;20.76;40.06;100219.16;5064982;28;20041;-71
2023/11/27 07:48:11;;;;;;;0.55;0.55;;;;;;;20.49;40.33;100182.09;5063405;28;20122;-72
2023/11/27 07:50:37;;;;;;;0.45;0.45;;;;;;;20.62;40.20;100202.44;5066726;28;20585;-72
2023/11/27 07:53:03;;;;;;;0.60;0.60;;;;;;;20.63;40.46;100206.72;5059532;28;20056;-71
2023/11/27 07:55:29;;;;;;;0.60;0.60;;;;;;;20.59;40.64;100202.03;5061211;28;20474;-72
2023/11/27 07:57:54;;;;;;;0.30;0.30;;;;;;;20.54;40.63;100196.53;5056426;28;20037;-72
2023/11/27 08:00:20;;;;;;;0.60;0.60;;;;;;;20.51;40.61;100189.81;5064193;28;20494;-72
2023/11/27 08:02:47;;;;;;;0.50;0.50;;;;;;;20.48;40.70;100188.38;5058263;28;20419;-72
2023/11/27 08:05:17;;;;;;;0.30;0.30;;;;;;;20.42;40.74;100175.94;5061390;28;20044;-72
2023/11/27 08:07:43;;;;;;;0.60;0.47;;;;;;;20.41;40.84;100170.84;5062035;28;20036;-72
2023/11/27 08:10:09;;;;;;;0.70;0.70;;;;;;;20.40;40.96;100175.28;5044131;28;20047;-72
2023/11/27 08:12:38;;;;;;;0.52;0.50;;;;;;;20.35;40.83;100164.50;5057406;28;20462;-72
2023/11/27 08:15:06;;;;;;;0.40;0.40;;;;;;;20.33;41.07;100158.59;5056481;28;20040;-72
2023/11/27 08:17:33;;;;;;;0.55;0.55;;;;;;;20.30;40.88;100155.56;5055153;28;20563;-72
2023/11/27 08:20:00;;;;;;;0.68;0.68;;;;;;;20.30;41.12;100156.38;5060551;28;20517;-72
2023/11/27 08:22:25;;;;;;;0.40;0.40;;;;;;;20.33;41.10;100165.72;5059451;28;20584;-72
2023/11/27 08:24:52;;;;;;;0.68;0.50;;;;;;;20.31;41.04;100165.94;5058548;28;20036;-73
2023/11/27 08:27:20;;;;;;;0.30;0.30;;;;;;;20.30;41.10;100166.13;5060085;28;20040;-72
2023/11/27 08:29:47;;;;;;;0.43;0.43;;;;;;;20.28;40.93;100160.19;5055263;28;20143;-71
2023/11/27 08:32:13;;;;;;;0.60;0.60;;;;;;;20.27;41.14;100156.72;5057089;28;20093;-72
2023/11/27 08:34:38;;;;;;;0.40;0.40;;;;;;;20.25;41.15;100153.47;5061456;28;20044;-71
2023/11/27 08:37:06;;;;;;;0.73;0.57;;;;;;;20.23;41.25;100158.97;5059943;28;20081;-71
2023/11/27 08:39:32;;;;;;;0.50;0.50;;;;;;;20.23;41.11;100151.03;5063799;28;20036;-72
2023/11/27 08:41:57;;;;;;;0.50;0.50;;;;;;;20.15;41.13;100140.66;5038017;28;20059;-73
2023/11/27 08:44:22;;;;;;;0.57;0.57;;;;;;;20.26;41.26;100141.06;5062149;28;20071;-73
2023/11/27 08:46:49;;;;;;;0.45;0.45;;;;;;;20.26;41.17;100141.88;5041155;28;20040;-72
2023/11/27 08:49:15;;;;;;;0.40;0.40;;;;;;;20.21;41.33;100136.38;5041490;28;20178;-72
2023/11/27 08:51:47;;;;;;;0.30;0.30;;;;;;;20.25;41.25;100136.81;5027195;28;20045;-72
2023/11/27 08:54:12;;;;;;;0.50;0.50;;;;;;;20.19;41.14;100119.91;5064125;28;20518;-72
2023/11/27 08:56:41;;;;;;;0.65;0.65;;;;;;;20.25;41.33;100120.94;5041583;28;20032;-72
2023/11/27 08:59:07;;;;;;;0.70;0.70;;;;;;;20.29;41.08;100120.38;5055515;28;20044;-73
2023/11/27 09:01:33;;;;;;;0.43;0.43;;;;;;;20.30;41.17;100111.41;5057452;28;20088;-72
2023/11/27 09:03:58;;;;;;;0.55;0.55;;;;;;;20.23;40.91;100097.34;5041102;28;20044;-72
2023/11/27 09:06:24;;;;;;;1.75;0.85;;;;;;;20.30;41.12;100100.84;5059441;28;20492;-73
2023/11/27 09:08:49;;;;;;;0.35;0.35;;;;;;;20.30;41.02;100098.19;5060293;28;20036;-73
2023/11/27 09:11:15;;;;;;;0.47;0.43;;;;;;;20.31;41.14;100097.19;5061353;28;20090;-73
2023/11/27 09:13:40;;;;;;;0.73;0.73;;;;;;;20.29;41.05;100095.72;5060534;28;20097;-73
2023/11/27 09:16:08;;;;;;;0.70;0.70;;;;;;;20.33;41.11;100107.56;5042557;28;20072;-73
2023/11/27 09:18:34;;;;;;;0.28;0.28;;;;;;;20.32;40.99;100105.94;5042427;28;22312;-71
2023/11/27 09:20:59;;;;;;;0.73;0.65;;;;;;;20.29;40.87;100093.94;5055786;28;20044;-71
2023/11/27 09:23:25;;;;;;;0.40;0.40;;;;;;;20.29;41.22;100095.72;5056186;28;20056;-71
2023/11/27 09:25:51;;;;;;;0.43;0.43;;;;;;;20.08;41.15;100063.16;5055254;28;20628;-71
2023/11/27 09:28:16;;;;;;;0.55;0.52;;;;;;;20.31;41.08;100091.88;5058260;28;20044;-70
2023/11/27 09:30:42;;;;;;;0.50;0.50;;;;;;;20.29;41.11;100087.78;5041903;28;20162;-72
2023/11/27 09:33:07;;;;;;;0.70;0.70;;;;;;;20.27;41.15;100079.25;5058138;28;20457;-72
2023/11/27 09:35:33;;;;;;;0.60;0.60;;;;;;;20.28;41.09;100083.53;5065958;28;20060;-72
2023/11/27 09:37:59;;;;;;;0.52;0.52;;;;;;;20.29;41.18;100079.84;5060721;28;20506;-73
2023/11/27 09:40:26;;;;;;;0.32;0.30;;;;;;;20.26;41.07;100077.63;5059975;28;20052;-73
2023/11/27 09:42:53;;;;;;;0.60;0.60;;;;;;;20.27;40.93;100077.41;5061862;28;20373;-72
2023/11/27 09:45:19;;;;;;;0.50;0.50;;;;;;;20.25;41.16;100065.41;5054117;28;20102;-73
2023/11/27 09:47:48;;;;;;;0.43;0.43;;;;;;;20.32;40.90;100068.91;5057604;28;20044;-72
2023/11/27 09:50:17;;;;;;;0.60;0.60;;;;;;;20.60;40.49;100060.81;5063223;28;20424;-72
2023/11/27 09:53:12;;;;;;;0.95;0.85;;;;;;;21.07;39.85;100057.94;5040250;28;20814;-73
2023/11/27 09:55:38;;;;;;;0.50;0.50;;;;;;;21.41;38.85;100045.47;5057590;28;20043;-73
2023/11/27 09:58:10;;;;;;;0.75;0.57;;;;;;;21.45;38.79;100053.81;5057551;28;20032;-72
2023/11/27 10:00:36;;;;;;;0.68;0.68;;;;;;;21.35;38.96;100047.09;5056939;28;20783;-73
2023/11/27 10:03:04;;;;;;;0.65;0.65;;;;;;;21.27;38.98;100033.28;5024065;28;20040;-73
2023/11/27 10:05:30;;;;;;;0.70;0.70;;;;;;;21.27;39.16;100049.19;5049132;28;20075;-73
2023/11/27 10:07:57;;;;;;;0.50;0.50;;;;;;;21.21;39.32;100040.22;5055767;28;20119;-73
2023/11/27 10:10:26;;;;;;;0.45;0.45;;;;;;;21.11;39.59;100032.69;5054616;28;20040;-73
2023/11/27 10:12:54;;;;;;;0.70;0.70;;;;;;;21.04;39.66;100023.13;5048924;28;20819;-73
2023/11/27 10:15:20;;;;;;;0.70;0.70;;;;;;;21.00;39.66;100030.66;5035985;28;20041;-72
2023/11/27 10:17:47;;;;;;;0.50;0.50;;;;;;;20.94;40.12;100025.38;5061222;28;20386;-73
2023/11/27 10:20:14;;;;;;;0.52;0.52;;;;;;;20.92;40.13;100022.94;5063678;28;20443;-74
2023/11/27 10:22:42;;;;;;;0.50;0.50;;;;;;;20.85;40.09;100010.75;5059786;28;20111;-76
2023/11/27 10:25:13;;;;;;;0.40;0.40;;;;;;;20.83;40.00;100010.97;5064821;28;20066;-75
2023/11/27 10:27:40;;;;;;;0.68;0.68;;;;;;;20.79;40.09;100001.78;5057993;28;20048;-75
2023/11/27 10:30:16;;;;;;;0.80;0.80;;;;;;;20.74;40.12;99996.31;5044040;28;20036;-76
2023/11/27 10:32:43;;;;;;;0.55;0.55;;;;;;;20.73;40.19;99990.22;5054585;28;20042;-77
2023/11/27 10:35:08;;;;;;;0.60;0.60;;;;;;;20.70;40.49;99993.25;5052180;28;20148;-77
2023/11/27 10:37:34;;;;;;;0.70;0.70;;;;;;;20.68;40.62;99991.84;5059694;28;20376;-77
2023/11/27 10:40:02;;;;;;;0.47;0.47;;;;;;;20.44;40.51;99945.66;5057330;28;20059;-76
2023/11/27 10:42:33;;;;;;;0.80;0.80;;;;;;;20.55;40.40;99958.28;5034225;28;20482;-76
2023/11/27 10:44:59;;;;;;;0.38;0.38;;;;;;;20.53;40.61;99952.38;5060144;28;20087;-76
2023/11/27 10:47:26;;;;;;;0.60;0.50;;;;;;;20.58;40.46;99971.09;5055907;28;20049;-77
2023/11/27 10:49:53;;;;;;;0.57;0.57;;;;;;;20.52;40.58;99956.06;5058723;28;20576;-76
2023/11/27 10:52:20;;;;;;;0.80;0.80;;;;;;;20.54;40.75;99956.66;5043825;28;20552;-77
2023/11/27 10:54:48;;;;;;;0.77;0.77;;;;;;;20.52;40.83;99951.56;5025170;28;20723;-77
2023/11/27 10:57:19;;;;;;;5.93;1.70;;;;;;;20.46;40.58;99944.44;5045600;28;20044;-70
2023/11/27 10:59:46;;;;;;;3.10;1.00;;;;;;;20.42;40.69;99939.78;5058706;28;20041;-75
2023/11/27 11:02:12;;;;;;;0.77;0.55;;;;;;;20.47;40.65;99938.16;5041823;28;20121;-73
2023/11/27 11:04:58;;;;;;;0.45;0.45;;;;;;;20.48;40.64;99938.97;5058177;28;20041;-73
2023/11/27 11:07:50;;;;;;;0.45;0.40;;;;;;;20.49;40.75;99938.75;5054267;28;20052;-72
2023/11/27 11:10:18;;;;;;;1.58;0.70;;;;;;;20.43;40.70;99923.69;5056725;28;20161;-72
2023/11/27 11:12:45;;;;;;;1.83;0.70;;;;;;;20.46;40.81;99930.41;5050892;28;20505;-72
2023/11/27 11:15:13;;;;;;;0.75;0.60;;;;;;;20.39;40.61;99914.53;5036016;28;20052;-72
2023/11/27 11:17:59;;;;;;;1.08;0.57;;;;;;;20.44;40.85;99925.31;5059519;28;20040;-74
2023/11/27 11:20:35;;;;;;;0.63;0.63;;;;;;;20.43;40.89;99920.25;5056718;28;20151;-74
2023/11/27 11:23:20;;;;;;;0.40;0.40;;;;;;;20.45;40.89;99924.31;5042961;28;20071;-74